sensor_id;sensor_type;location;lat;lon;timestamp;P1;durP1;ratioP1;P2;durP2;ratioP2
12222;SDS011;6174;49.058;8.524;2024-03-25T09:38:54;2.93;;;1.63;;
12222;SDS011;6174;49.058;8.524;2024-03-25T09:44:25;1.97;;;1.43;;
12222;SDS011;6174;49.058;8.524;2024-03-25T09:49:29;2.87;;;1.80;;
12222;SDS011;6174;49.058;8.524;2024-03-25T09:52:30;2.73;;;1.97;;
12222;SDS011;6174;49.058;8.524;2024-03-25T09:55:29;2.30;;;1.83;;
12222;SDS011;6174;49.058;8.524;2024-03-25T10:01:07;1.87;;;1.50;;
12222;SDS011;6174;49.058;8.524;2024-03-25T10:03:54;4.17;;;2.00;;
12222;SDS011;6174;49.058;8.524;2024-03-25T10:06:24;2.00;;;1.77;;
12222;SDS011;6174;49.058;8.524;2024-03-25T10:15:31;2.13;;;1.80;;
12222;SDS011;6174;49.058;8.524;2024-03-25T10:20:57;2.20;;;1.80;;
12222;SDS011;6174;49.058;8.524;2024-03-25T10:24:09;1.73;;;1.60;;
12222;SDS011;6174;49.058;8.524;2024-03-25T10:30:51;2.80;;;1.73;;
12222;SDS011;6174;49.058;8.524;2024-03-25T10:33:50;3.47;;;1.87;;
12222;SDS011;6174;49.058;8.524;2024-03-25T12:49:19;1.67;;;1.40;;
12222;SDS011;6174;49.058;8.524;2024-03-25T15:12:22;1.93;;;1.50;;
12222;SDS011;6174;49.058;8.524;2024-03-25T15:58:00;2.77;;;2.50;;
12222;SDS011;6174;49.058;8.524;2024-03-25T16:00:37;3.03;;;2.30;;
12222;SDS011;6174;49.058;8.524;2024-03-25T16:03:04;2.40;;;2.20;;
12222;SDS011;6174;49.058;8.524;2024-03-25T16:05:30;2.27;;;2.07;;
12222;SDS011;6174;49.058;8.524;2024-03-25T16:07:56;4.53;;;2.30;;
12222;SDS011;6174;49.058;8.524;2024-03-25T16:10:22;2.63;;;2.43;;
12222;SDS011;6174;49.058;8.524;2024-03-25T16:12:49;3.50;;;2.13;;
12222;SDS011;6174;49.058;8.524;2024-03-25T16:15:16;2.23;;;1.90;;
12222;SDS011;6174;49.058;8.524;2024-03-25T16:17:42;1.90;;;1.70;;
12222;SDS011;6174;49.058;8.524;2024-03-25T16:20:09;3.30;;;1.80;;
12222;SDS011;6174;49.058;8.524;2024-03-25T16:22:36;2.60;;;1.87;;
12222;SDS011;6174;49.058;8.524;2024-03-25T16:25:04;2.00;;;1.90;;
12222;SDS011;6174;49.058;8.524;2024-03-25T16:27:31;2.27;;;1.80;;
12222;SDS011;6174;49.058;8.524;2024-03-25T16:29:58;2.80;;;2.20;;
12222;SDS011;6174;49.058;8.524;2024-03-25T16:32:32;2.13;;;1.90;;
12222;SDS011;6174;49.058;8.524;2024-03-25T16:34:58;2.80;;;2.00;;
12222;SDS011;6174;49.058;8.524;2024-03-25T16:37:24;2.17;;;1.93;;
12222;SDS011;6174;49.058;8.524;2024-03-25T16:39:50;3.00;;;2.30;;
12222;SDS011;6174;49.058;8.524;2024-03-25T16:42:18;2.40;;;1.70;;
12222;SDS011;6174;49.058;8.524;2024-03-25T16:44:44;1.93;;;1.73;;
12222;SDS011;6174;49.058;8.524;2024-03-25T16:47:10;3.10;;;2.20;;
12222;SDS011;6174;49.058;8.524;2024-03-25T16:52:20;1.40;;;1.30;;
12222;SDS011;6174;49.058;8.524;2024-03-25T16:54:46;3.80;;;1.83;;
12222;SDS011;6174;49.058;8.524;2024-03-25T16:57:14;2.73;;;1.50;;
12222;SDS011;6174;49.058;8.524;2024-03-25T16:59:41;2.97;;;2.03;;
12222;SDS011;6174;49.058;8.524;2024-03-25T17:02:07;1.80;;;1.30;;
12222;SDS011;6174;49.058;8.524;2024-03-25T17:04:33;2.00;;;1.50;;
12222;SDS011;6174;49.058;8.524;2024-03-25T17:07:02;2.77;;;2.20;;
12222;SDS011;6174;49.058;8.524;2024-03-25T17:09:30;2.00;;;1.43;;
12222;SDS011;6174;49.058;8.524;2024-03-25T17:12:09;3.40;;;1.37;;
12222;SDS011;6174;49.058;8.524;2024-03-25T17:14:50;1.40;;;1.30;;
12222;SDS011;6174;49.058;8.524;2024-03-25T17:17:17;2.33;;;1.40;;
12222;SDS011;6174;49.058;8.524;2024-03-25T17:19:54;2.07;;;1.50;;
12222;SDS011;6174;49.058;8.524;2024-03-25T17:22:29;3.07;;;1.50;;
12222;SDS011;6174;49.058;8.524;2024-03-25T17:25:00;2.23;;;1.60;;
12222;SDS011;6174;49.058;8.524;2024-03-25T17:30:14;1.60;;;1.50;;
12222;SDS011;6174;49.058;8.524;2024-03-25T17:32:42;1.60;;;1.30;;
12222;SDS011;6174;49.058;8.524;2024-03-25T17:35:10;2.40;;;1.63;;
12222;SDS011;6174;49.058;8.524;2024-03-25T17:37:51;2.13;;;1.43;;
12222;SDS011;6174;49.058;8.524;2024-03-25T17:40:37;2.47;;;1.33;;
12222;SDS011;6174;49.058;8.524;2024-03-25T17:43:14;1.87;;;1.50;;
12222;SDS011;6174;49.058;8.524;2024-03-25T17:46:10;1.67;;;1.40;;
12222;SDS011;6174;49.058;8.524;2024-03-25T17:49:36;1.50;;;1.40;;
12222;SDS011;6174;49.058;8.524;2024-03-25T17:53:06;2.40;;;1.60;;
12222;SDS011;6174;49.058;8.524;2024-03-25T17:55:47;1.83;;;1.50;;
12222;SDS011;6174;49.058;8.524;2024-03-25T17:58:19;2.03;;;1.40;;
12222;SDS011;6174;49.058;8.524;2024-03-25T18:01:09;1.60;;;1.20;;
12222;SDS011;6174;49.058;8.524;2024-03-25T18:03:50;1.70;;;1.33;;
12222;SDS011;6174;49.058;8.524;2024-03-25T18:06:46;2.63;;;1.53;;
12222;SDS011;6174;49.058;8.524;2024-03-25T18:09:17;2.20;;;1.90;;
12222;SDS011;6174;49.058;8.524;2024-03-25T18:18:55;2.47;;;1.37;;
12222;SDS011;6174;49.058;8.524;2024-03-25T18:22:16;1.83;;;1.40;;
12222;SDS011;6174;49.058;8.524;2024-03-25T18:25:23;1.70;;;1.60;;
12222;SDS011;6174;49.058;8.524;2024-03-25T18:27:52;3.50;;;1.60;;
12222;SDS011;6174;49.058;8.524;2024-03-25T18:30:23;2.53;;;1.63;;
12222;SDS011;6174;49.058;8.524;2024-03-25T18:32:54;1.87;;;1.63;;
12222;SDS011;6174;49.058;8.524;2024-03-25T18:35:20;1.80;;;1.60;;
12222;SDS011;6174;49.058;8.524;2024-03-25T18:37:47;2.73;;;1.67;;
12222;SDS011;6174;49.058;8.524;2024-03-25T18:40:15;3.93;;;1.50;;
12222;SDS011;6174;49.058;8.524;2024-03-25T18:42:45;2.57;;;1.60;;
12222;SDS011;6174;49.058;8.524;2024-03-25T18:45:13;2.37;;;1.73;;
12222;SDS011;6174;49.058;8.524;2024-03-25T18:47:56;3.53;;;1.70;;
12222;SDS011;6174;49.058;8.524;2024-03-25T18:50:27;1.97;;;1.70;;
12222;SDS011;6174;49.058;8.524;2024-03-25T18:52:54;2.37;;;1.67;;
12222;SDS011;6174;49.058;8.524;2024-03-25T18:55:24;4.50;;;1.97;;
12222;SDS011;6174;49.058;8.524;2024-03-25T18:57:57;2.37;;;2.10;;
12222;SDS011;6174;49.058;8.524;2024-03-25T19:00:26;2.17;;;1.80;;
12222;SDS011;6174;49.058;8.524;2024-03-25T19:02:57;3.00;;;2.60;;
12222;SDS011;6174;49.058;8.524;2024-03-25T19:05:24;3.20;;;2.90;;
12222;SDS011;6174;49.058;8.524;2024-03-25T19:07:51;3.47;;;3.00;;
12222;SDS011;6174;49.058;8.524;2024-03-25T19:14:10;4.50;;;3.90;;
12222;SDS011;6174;49.058;8.524;2024-03-25T19:16:36;4.20;;;3.80;;
12222;SDS011;6174;49.058;8.524;2024-03-25T19:19:02;4.23;;;3.70;;
12222;SDS011;6174;49.058;8.524;2024-03-25T19:21:27;5.10;;;3.90;;
12222;SDS011;6174;49.058;8.524;2024-03-25T19:23:53;7.20;;;4.10;;
12222;SDS011;6174;49.058;8.524;2024-03-25T19:26:19;5.23;;;3.80;;
12222;SDS011;6174;49.058;8.524;2024-03-25T19:28:45;4.10;;;3.70;;
12222;SDS011;6174;49.058;8.524;2024-03-25T19:31:12;4.13;;;3.40;;
12222;SDS011;6174;49.058;8.524;2024-03-25T19:33:38;3.93;;;3.10;;
12222;SDS011;6174;49.058;8.524;2024-03-25T19:36:04;7.20;;;6.50;;
12222;SDS011;6174;49.058;8.524;2024-03-25T19:38:30;4.10;;;3.70;;
12222;SDS011;6174;49.058;8.524;2024-03-25T19:40:56;3.90;;;3.10;;
12222;SDS011;6174;49.058;8.524;2024-03-25T19:43:23;5.33;;;3.57;;
12222;SDS011;6174;49.058;8.524;2024-03-25T19:45:49;6.77;;;5.73;;
12222;SDS011;6174;49.058;8.524;2024-03-25T19:48:16;5.03;;;4.53;;
12222;SDS011;6174;49.058;8.524;2024-03-25T19:50:42;4.73;;;4.20;;
12222;SDS011;6174;49.058;8.524;2024-03-25T19:53:07;4.73;;;4.10;;
12222;SDS011;6174;49.058;8.524;2024-03-25T19:55:33;4.93;;;3.73;;
12222;SDS011;6174;49.058;8.524;2024-03-25T19:57:59;4.77;;;4.10;;
12222;SDS011;6174;49.058;8.524;2024-03-25T20:00:26;4.33;;;3.13;;
12222;SDS011;6174;49.058;8.524;2024-03-25T20:02:52;4.00;;;3.43;;
12222;SDS011;6174;49.058;8.524;2024-03-25T20:05:20;4.03;;;3.10;;
12222;SDS011;6174;49.058;8.524;2024-03-25T20:07:45;4.00;;;2.87;;
12222;SDS011;6174;49.058;8.524;2024-03-25T20:10:11;2.67;;;2.47;;
12222;SDS011;6174;49.058;8.524;2024-03-25T20:12:37;4.37;;;2.80;;
12222;SDS011;6174;49.058;8.524;2024-03-25T20:15:04;3.63;;;3.00;;
12222;SDS011;6174;49.058;8.524;2024-03-25T20:17:30;3.27;;;2.93;;
12222;SDS011;6174;49.058;8.524;2024-03-25T20:19:56;3.30;;;2.80;;
12222;SDS011;6174;49.058;8.524;2024-03-25T20:22:23;4.53;;;2.80;;
12222;SDS011;6174;49.058;8.524;2024-03-25T20:24:49;2.50;;;2.27;;
12222;SDS011;6174;49.058;8.524;2024-03-25T20:27:15;2.60;;;2.40;;
12222;SDS011;6174;49.058;8.524;2024-03-25T20:29:41;4.43;;;2.40;;
12222;SDS011;6174;49.058;8.524;2024-03-25T20:32:07;3.27;;;2.47;;
12222;SDS011;6174;49.058;8.524;2024-03-25T20:34:33;3.30;;;2.03;;
12222;SDS011;6174;49.058;8.524;2024-03-25T20:36:59;2.40;;;2.20;;
12222;SDS011;6174;49.058;8.524;2024-03-25T20:39:26;4.17;;;2.23;;
12222;SDS011;6174;49.058;8.524;2024-03-25T20:41:52;2.50;;;2.30;;
12222;SDS011;6174;49.058;8.524;2024-03-25T20:44:17;2.93;;;2.03;;
12222;SDS011;6174;49.058;8.524;2024-03-25T20:46:43;2.53;;;2.30;;
12222;SDS011;6174;49.058;8.524;2024-03-25T20:49:09;4.30;;;2.70;;
12222;SDS011;6174;49.058;8.524;2024-03-25T20:51:35;2.50;;;1.90;;
12222;SDS011;6174;49.058;8.524;2024-03-25T20:54:01;2.77;;;2.20;;
12222;SDS011;6174;49.058;8.524;2024-03-25T20:56:28;3.57;;;2.40;;
12222;SDS011;6174;49.058;8.524;2024-03-25T20:58:54;2.60;;;2.00;;
12222;SDS011;6174;49.058;8.524;2024-03-25T21:01:20;3.03;;;2.57;;
12222;SDS011;6174;49.058;8.524;2024-03-25T21:03:46;2.37;;;2.07;;
12222;SDS011;6174;49.058;8.524;2024-03-25T21:06:12;2.57;;;2.23;;
12222;SDS011;6174;49.058;8.524;2024-03-25T21:08:38;2.67;;;2.17;;
12222;SDS011;6174;49.058;8.524;2024-03-25T21:11:03;2.33;;;2.10;;
12222;SDS011;6174;49.058;8.524;2024-03-25T21:13:31;3.43;;;1.93;;
12222;SDS011;6174;49.058;8.524;2024-03-25T21:15:56;3.47;;;2.40;;
12222;SDS011;6174;49.058;8.524;2024-03-25T21:18:22;2.27;;;2.07;;
12222;SDS011;6174;49.058;8.524;2024-03-25T21:20:48;2.60;;;1.90;;
12222;SDS011;6174;49.058;8.524;2024-03-25T21:23:14;2.50;;;2.10;;
12222;SDS011;6174;49.058;8.524;2024-03-25T21:25:40;2.57;;;2.13;;
12222;SDS011;6174;49.058;8.524;2024-03-25T21:28:06;2.80;;;2.03;;
12222;SDS011;6174;49.058;8.524;2024-03-25T21:30:33;4.33;;;2.40;;
12222;SDS011;6174;49.058;8.524;2024-03-25T21:32:59;3.77;;;2.20;;
12222;SDS011;6174;49.058;8.524;2024-03-25T21:35:25;2.47;;;1.90;;
12222;SDS011;6174;49.058;8.524;2024-03-25T21:37:50;2.30;;;1.90;;
12222;SDS011;6174;49.058;8.524;2024-03-25T21:40:16;2.20;;;1.97;;
12222;SDS011;6174;49.058;8.524;2024-03-25T21:42:42;2.00;;;1.80;;
12222;SDS011;6174;49.058;8.524;2024-03-25T21:45:08;2.17;;;1.80;;
12222;SDS011;6174;49.058;8.524;2024-03-25T21:47:35;2.83;;;2.20;;
12222;SDS011;6174;49.058;8.524;2024-03-25T21:50:01;2.17;;;1.80;;
12222;SDS011;6174;49.058;8.524;2024-03-25T21:52:27;2.67;;;1.97;;
12222;SDS011;6174;49.058;8.524;2024-03-25T21:54:53;2.13;;;1.90;;
12222;SDS011;6174;49.058;8.524;2024-03-25T21:57:19;2.63;;;2.10;;
12222;SDS011;6174;49.058;8.524;2024-03-25T21:59:45;2.57;;;2.10;;
12222;SDS011;6174;49.058;8.524;2024-03-25T22:02:11;2.40;;;2.10;;
12222;SDS011;6174;49.058;8.524;2024-03-25T22:04:38;2.33;;;2.10;;
12222;SDS011;6174;49.058;8.524;2024-03-25T22:46:15;4.07;;;2.30;;
12222;SDS011;6174;49.058;8.524;2024-03-25T22:48:58;3.03;;;2.07;;
